sensor_id;sensor_type;location;lat;lon;timestamp;temperature;humidity
34147;DHT22;20423;49.448;9.056;2022-09-12T00:00:45;9.90;99.90
34147;DHT22;20423;49.448;9.056;2022-09-12T00:03:11;9.90;99.90
34147;DHT22;20423;49.448;9.056;2022-09-12T00:05:41;10.00;99.90
34147;DHT22;20423;49.448;9.056;2022-09-12T00:08:07;10.00;99.90
34147;DHT22;20423;49.448;9.056;2022-09-12T00:10:37;10.00;99.90
34147;DHT22;20423;49.448;9.056;2022-09-12T00:13:03;9.90;99.90
34147;DHT22;20423;49.448;9.056;2022-09-12T00:15:29;9.90;99.90
34147;DHT22;20423;49.448;9.056;2022-09-12T00:17:54;9.90;99.90
34147;DHT22;20423;49.448;9.056;2022-09-12T00:20:20;9.90;99.90
34147;DHT22;20423;49.448;9.056;2022-09-12T00:22:46;9.80;99.90
34147;DHT22;20423;49.448;9.056;2022-09-12T00:25:11;9.80;99.90
34147;DHT22;20423;49.448;9.056;2022-09-12T00:27:37;9.70;99.90
34147;DHT22;20423;49.448;9.056;2022-09-12T00:30:04;9.80;99.90
34147;DHT22;20423;49.448;9.056;2022-09-12T00:32:29;9.80;99.90
34147;DHT22;20423;49.448;9.056;2022-09-12T00:34:55;9.90;99.90
34147;DHT22;20423;49.448;9.056;2022-09-12T00:37:21;10.00;99.90
34147;DHT22;20423;49.448;9.056;2022-09-12T00:39:47;10.00;99.90
34147;DHT22;20423;49.448;9.056;2022-09-12T00:42:12;10.10;99.90
34147;DHT22;20423;49.448;9.056;2022-09-12T00:44:41;10.10;99.90
34147;DHT22;20423;49.448;9.056;2022-09-12T00:47:21;10.20;99.90
34147;DHT22;20423;49.448;9.056;2022-09-12T00:49:56;10.30;99.90
34147;DHT22;20423;49.448;9.056;2022-09-12T00:52:34;10.40;99.90
34147;DHT22;20423;49.448;9.056;2022-09-12T00:55:16;10.40;99.90
34147;DHT22;20423;49.448;9.056;2022-09-12T00:57:51;10.40;99.90
34147;DHT22;20423;49.448;9.056;2022-09-12T01:00:21;10.40;99.90
34147;DHT22;20423;49.448;9.056;2022-09-12T01:02:55;10.40;99.90
34147;DHT22;20423;49.448;9.056;2022-09-12T01:05:22;10.40;99.90
34147;DHT22;20423;49.448;9.056;2022-09-12T01:07:49;10.40;99.90
34147;DHT22;20423;49.448;9.056;2022-09-12T01:10:17;10.40;99.90
34147;DHT22;20423;49.448;9.056;2022-09-12T01:12:43;10.40;99.90
34147;DHT22;20423;49.448;9.056;2022-09-12T01:15:10;10.40;99.90
34147;DHT22;20423;49.448;9.056;2022-09-12T01:26:04;10.40;99.90
34147;DHT22;20423;49.448;9.056;2022-09-12T01:29:20;10.40;99.90
34147;DHT22;20423;49.448;9.056;2022-09-12T01:38:18;10.30;99.90
34147;DHT22;20423;49.448;9.056;2022-09-12T01:40:58;10.20;99.90
34147;DHT22;20423;49.448;9.056;2022-09-12T01:43:35;10.10;99.90
34147;DHT22;20423;49.448;9.056;2022-09-12T01:46:22;10.10;99.90
34147;DHT22;20423;49.448;9.056;2022-09-12T01:52:27;10.10;99.90
34147;DHT22;20423;49.448;9.056;2022-09-12T01:54:59;10.00;99.90
34147;DHT22;20423;49.448;9.056;2022-09-12T01:57:36;9.90;99.90
34147;DHT22;20423;49.448;9.056;2022-09-12T02:00:08;10.00;99.90
34147;DHT22;20423;49.448;9.056;2022-09-12T02:02:44;9.90;99.90
34147;DHT22;20423;49.448;9.056;2022-09-12T02:05:22;9.80;99.90
34147;DHT22;20423;49.448;9.056;2022-09-12T02:07:56;9.80;99.90
34147;DHT22;20423;49.448;9.056;2022-09-12T02:10:30;9.80;99.90
34147;DHT22;20423;49.448;9.056;2022-09-12T02:13:09;9.80;99.90
34147;DHT22;20423;49.448;9.056;2022-09-12T02:15:40;9.70;99.90
34147;DHT22;20423;49.448;9.056;2022-09-12T02:18:07;9.70;99.90
34147;DHT22;20423;49.448;9.056;2022-09-12T02:20:37;9.60;99.90
34147;DHT22;20423;49.448;9.056;2022-09-12T02:23:08;9.70;99.90
34147;DHT22;20423;49.448;9.056;2022-09-12T02:25:36;9.60;99.90
34147;DHT22;20423;49.448;9.056;2022-09-12T02:28:07;9.60;99.90
34147;DHT22;20423;49.448;9.056;2022-09-12T02:30:40;9.50;99.90
34147;DHT22;20423;49.448;9.056;2022-09-12T02:33:35;9.50;99.90
34147;DHT22;20423;49.448;9.056;2022-09-12T02:39:05;9.60;99.90
34147;DHT22;20423;49.448;9.056;2022-09-12T02:41:31;9.60;99.90
34147;DHT22;20423;49.448;9.056;2022-09-12T02:44:16;9.60;99.90
34147;DHT22;20423;49.448;9.056;2022-09-12T02:46:45;9.60;99.90
34147;DHT22;20423;49.448;9.056;2022-09-12T02:49:13;9.60;99.90
34147;DHT22;20423;49.448;9.056;2022-09-12T02:51:39;9.50;99.90
34147;DHT22;20423;49.448;9.056;2022-09-12T02:54:05;9.50;99.90
34147;DHT22;20423;49.448;9.056;2022-09-12T02:56:32;9.60;99.90
34147;DHT22;20423;49.448;9.056;2022-09-12T02:59:02;9.50;99.90
34147;DHT22;20423;49.448;9.056;2022-09-12T03:10:04;9.50;99.90
34147;DHT22;20423;49.448;9.056;2022-09-12T03:15:39;9.40;99.90
34147;DHT22;20423;49.448;9.056;2022-09-12T03:26:37;9.50;99.90
34147;DHT22;20423;49.448;9.056;2022-09-12T03:29:06;9.50;99.90
34147;DHT22;20423;49.448;9.056;2022-09-12T03:31:32;9.50;99.90
34147;DHT22;20423;49.448;9.056;2022-09-12T03:33:59;9.50;99.90
34147;DHT22;20423;49.448;9.056;2022-09-12T03:36:27;9.50;99.90
34147;DHT22;20423;49.448;9.056;2022-09-12T03:38:53;9.50;99.90
34147;DHT22;20423;49.448;9.056;2022-09-12T03:41:18;9.50;99.90
34147;DHT22;20423;49.448;9.056;2022-09-12T03:43:45;9.50;99.90
34147;DHT22;20423;49.448;9.056;2022-09-12T03:46:11;9.50;99.90
34147;DHT22;20423;49.448;9.056;2022-09-12T03:48:37;9.50;99.90
34147;DHT22;20423;49.448;9.056;2022-09-12T03:51:05;9.60;99.90
34147;DHT22;20423;49.448;9.056;2022-09-12T03:53:32;9.60;99.90
34147;DHT22;20423;49.448;9.056;2022-09-12T03:55:58;9.50;99.90
34147;DHT22;20423;49.448;9.056;2022-09-12T03:58:28;9.60;99.90
34147;DHT22;20423;49.448;9.056;2022-09-12T04:00:53;9.60;99.90
34147;DHT22;20423;49.448;9.056;2022-09-12T04:03:19;9.60;99.90
34147;DHT22;20423;49.448;9.056;2022-09-12T04:05:45;9.60;99.90
34147;DHT22;20423;49.448;9.056;2022-09-12T04:08:12;9.60;99.90
34147;DHT22;20423;49.448;9.056;2022-09-12T04:10:38;9.70;99.90
34147;DHT22;20423;49.448;9.056;2022-09-12T04:13:04;9.60;99.90
34147;DHT22;20423;49.448;9.056;2022-09-12T04:15:29;9.60;99.90
34147;DHT22;20423;49.448;9.056;2022-09-12T04:17:55;9.60;99.90
34147;DHT22;20423;49.448;9.056;2022-09-12T04:20:21;9.50;99.90
34147;DHT22;20423;49.448;9.056;2022-09-12T04:22:46;9.50;99.90
34147;DHT22;20423;49.448;9.056;2022-09-12T04:25:12;9.40;99.90
34147;DHT22;20423;49.448;9.056;2022-09-12T04:27:38;9.40;99.90
34147;DHT22;20423;49.448;9.056;2022-09-12T04:30:04;9.40;99.90
34147;DHT22;20423;49.448;9.056;2022-09-12T04:32:30;9.40;99.90
34147;DHT22;20423;49.448;9.056;2022-09-12T04:34:56;9.30;99.90
34147;DHT22;20423;49.448;9.056;2022-09-12T04:37:22;9.30;99.90
34147;DHT22;20423;49.448;9.056;2022-09-12T04:39:48;9.20;99.90
34147;DHT22;20423;49.448;9.056;2022-09-12T04:42:15;9.20;99.90
34147;DHT22;20423;49.448;9.056;2022-09-12T04:44:49;9.20;99.90
34147;DHT22;20423;49.448;9.056;2022-09-12T04:47:15;9.20;99.90
34147;DHT22;20423;49.448;9.056;2022-09-12T04:49:47;9.20;99.90
34147;DHT22;20423;49.448;9.056;2022-09-12T04:52:14;9.30;99.90
34147;DHT22;20423;49.448;9.056;2022-09-12T04:54:40;9.30;99.90
34147;DHT22;20423;49.448;9.056;2022-09-12T04:57:05;9.40;99.90
34147;DHT22;20423;49.448;9.056;2022-09-12T04:59:31;9.50;99.90
34147;DHT22;20423;49.448;9.056;2022-09-12T05:01:57;9.60;99.90
34147;DHT22;20423;49.448;9.056;2022-09-12T05:04:23;9.60;99.90
34147;DHT22;20423;49.448;9.056;2022-09-12T05:06:49;9.50;99.90
34147;DHT22;20423;49.448;9.056;2022-09-12T05:09:14;9.60;99.90
34147;DHT22;20423;49.448;9.056;2022-09-12T05:11:42;9.70;99.90
34147;DHT22;20423;49.448;9.056;2022-09-12T05:14:10;9.60;99.90
34147;DHT22;20423;49.448;9.056;2022-09-12T05:16:35;9.50;99.90
34147;DHT22;20423;49.448;9.056;2022-09-12T05:19:01;9.60;99.90
34147;DHT22;20423;49.448;9.056;2022-09-12T05:21:27;9.60;99.90
34147;DHT22;20423;49.448;9.056;2022-09-12T05:23:54;9.50;99.90
34147;DHT22;20423;49.448;9.056;2022-09-12T05:26:51;9.60;99.90
34147;DHT22;20423;49.448;9.056;2022-09-12T05:29:17;9.50;99.90
34147;DHT22;20423;49.448;9.056;2022-09-12T05:31:43;9.60;99.90
34147;DHT22;20423;49.448;9.056;2022-09-12T05:34:09;9.70;99.90
34147;DHT22;20423;49.448;9.056;2022-09-12T05:36:36;9.70;99.90
34147;DHT22;20423;49.448;9.056;2022-09-12T05:39:02;9.80;99.90
34147;DHT22;20423;49.448;9.056;2022-09-12T05:41:30;9.80;99.90
34147;DHT22;20423;49.448;9.056;2022-09-12T05:43:58;9.90;99.90
34147;DHT22;20423;49.448;9.056;2022-09-12T05:46:29;9.90;99.90
34147;DHT22;20423;49.448;9.056;2022-09-12T05:49:02;10.00;99.90
34147;DHT22;20423;49.448;9.056;2022-09-12T05:51:32;10.00;99.90
34147;DHT22;20423;49.448;9.056;2022-09-12T05:54:00;10.10;99.90
34147;DHT22;20423;49.448;9.056;2022-09-12T05:56:28;10.20;99.90
34147;DHT22;20423;49.448;9.056;2022-09-12T05:59:01;10.20;99.90
34147;DHT22;20423;49.448;9.056;2022-09-12T06:01:28;10.30;99.90
34147;DHT22;20423;49.448;9.056;2022-09-12T06:03:55;10.40;99.90
34147;DHT22;20423;49.448;9.056;2022-09-12T06:06:24;10.50;99.90
34147;DHT22;20423;49.448;9.056;2022-09-12T06:08:51;10.60;99.90
34147;DHT22;20423;49.448;9.056;2022-09-12T06:11:22;10.70;99.90
34147;DHT22;20423;49.448;9.056;2022-09-12T06:13:48;10.90;99.90
34147;DHT22;20423;49.448;9.056;2022-09-12T06:16:17;11.00;99.90
34147;DHT22;20423;49.448;9.056;2022-09-12T06:19:04;11.10;99.90
34147;DHT22;20423;49.448;9.056;2022-09-12T06:21:31;11.30;99.90
34147;DHT22;20423;49.448;9.056;2022-09-12T06:23:57;11.40;99.90
34147;DHT22;20423;49.448;9.056;2022-09-12T06:26:23;11.50;99.90
34147;DHT22;20423;49.448;9.056;2022-09-12T06:28:51;11.70;99.90
34147;DHT22;20423;49.448;9.056;2022-09-12T06:31:24;12.00;99.90
34147;DHT22;20423;49.448;9.056;2022-09-12T06:33:52;12.10;99.90
34147;DHT22;20423;49.448;9.056;2022-09-12T06:36:20;12.20;99.90
34147;DHT22;20423;49.448;9.056;2022-09-12T06:38:47;12.30;99.90
34147;DHT22;20423;49.448;9.056;2022-09-12T06:41:14;12.40;99.90
34147;DHT22;20423;49.448;9.056;2022-09-12T06:43:41;12.50;99.90
34147;DHT22;20423;49.448;9.056;2022-09-12T06:46:08;12.70;99.90
34147;DHT22;20423;49.448;9.056;2022-09-12T06:48:35;12.80;99.90
34147;DHT22;20423;49.448;9.056;2022-09-12T06:51:06;13.00;99.90
34147;DHT22;20423;49.448;9.056;2022-09-12T06:53:34;13.10;99.90
34147;DHT22;20423;49.448;9.056;2022-09-12T06:59:13;13.30;99.90
34147;DHT22;20423;49.448;9.056;2022-09-12T07:01:39;13.40;99.90
34147;DHT22;20423;49.448;9.056;2022-09-12T07:04:06;13.60;99.90
34147;DHT22;20423;49.448;9.056;2022-09-12T07:06:37;13.60;99.90
34147;DHT22;20423;49.448;9.056;2022-09-12T07:09:12;13.80;99.90
34147;DHT22;20423;49.448;9.056;2022-09-12T07:11:41;13.90;99.90
34147;DHT22;20423;49.448;9.056;2022-09-12T07:14:07;14.00;99.90
34147;DHT22;20423;49.448;9.056;2022-09-12T07:16:35;14.00;99.90
34147;DHT22;20423;49.448;9.056;2022-09-12T07:19:02;14.20;99.90
34147;DHT22;20423;49.448;9.056;2022-09-12T07:21:28;14.30;99.90
34147;DHT22;20423;49.448;9.056;2022-09-12T07:23:55;14.40;99.90
34147;DHT22;20423;49.448;9.056;2022-09-12T07:26:23;14.50;99.90
34147;DHT22;20423;49.448;9.056;2022-09-12T07:28:50;14.60;99.90
34147;DHT22;20423;49.448;9.056;2022-09-12T07:31:18;14.70;99.90
34147;DHT22;20423;49.448;9.056;2022-09-12T07:33:44;14.80;99.90
34147;DHT22;20423;49.448;9.056;2022-09-12T07:36:12;14.90;99.90
34147;DHT22;20423;49.448;9.056;2022-09-12T07:38:39;15.00;99.90
34147;DHT22;20423;49.448;9.056;2022-09-12T07:43:37;15.10;99.90
34147;DHT22;20423;49.448;9.056;2022-09-12T07:46:02;15.30;99.90
34147;DHT22;20423;49.448;9.056;2022-09-12T07:48:28;15.40;99.90
34147;DHT22;20423;49.448;9.056;2022-09-12T07:51:02;15.50;99.90
34147;DHT22;20423;49.448;9.056;2022-09-12T07:53:38;15.60;99.90
34147;DHT22;20423;49.448;9.056;2022-09-12T07:56:05;15.80;99.90
34147;DHT22;20423;49.448;9.056;2022-09-12T07:58:33;15.90;99.90
34147;DHT22;20423;49.448;9.056;2022-09-12T08:03:27;16.10;99.90
34147;DHT22;20423;49.448;9.056;2022-09-12T08:05:53;16.10;99.90
34147;DHT22;20423;49.448;9.056;2022-09-12T08:08:19;16.30;99.90
34147;DHT22;20423;49.448;9.056;2022-09-12T08:10:45;16.40;99.90
34147;DHT22;20423;49.448;9.056;2022-09-12T08:13:30;16.50;99.90
34147;DHT22;20423;49.448;9.056;2022-09-12T08:16:00;16.70;99.90
34147;DHT22;20423;49.448;9.056;2022-09-12T08:18:27;16.70;99.90
34147;DHT22;20423;49.448;9.056;2022-09-12T08:21:01;16.80;99.90
34147;DHT22;20423;49.448;9.056;2022-09-12T08:23:28;16.80;99.90
34147;DHT22;20423;49.448;9.056;2022-09-12T08:25:58;17.00;99.90
34147;DHT22;20423;49.448;9.056;2022-09-12T08:28:25;17.10;99.90
34147;DHT22;20423;49.448;9.056;2022-09-12T08:31:03;17.20;99.90
34147;DHT22;20423;49.448;9.056;2022-09-12T08:33:29;17.30;99.90
34147;DHT22;20423;49.448;9.056;2022-09-12T08:36:12;17.30;99.90
34147;DHT22;20423;49.448;9.056;2022-09-12T08:38:41;17.40;99.90
34147;DHT22;20423;49.448;9.056;2022-09-12T08:49:55;20.80;99.90
34147;DHT22;20423;49.448;9.056;2022-09-12T08:54:50;23.40;99.90
34147;DHT22;20423;49.448;9.056;2022-09-12T08:57:15;24.30;99.90
34147;DHT22;20423;49.448;9.056;2022-09-12T08:59:44;24.30;99.90
34147;DHT22;20423;49.448;9.056;2022-09-12T09:05:31;23.40;99.90
34147;DHT22;20423;49.448;9.056;2022-09-12T09:08:28;23.40;99.90
34147;DHT22;20423;49.448;9.056;2022-09-12T09:16:43;23.20;99.90
34147;DHT22;20423;49.448;9.056;2022-09-12T09:22:37;22.80;99.90
34147;DHT22;20423;49.448;9.056;2022-09-12T09:25:15;23.10;99.90
34147;DHT22;20423;49.448;9.056;2022-09-12T09:27:58;22.50;99.90
34147;DHT22;20423;49.448;9.056;2022-09-12T09:30:26;22.00;99.90
34147;DHT22;20423;49.448;9.056;2022-09-12T09:32:59;22.10;99.90
34147;DHT22;20423;49.448;9.056;2022-09-12T09:35:30;22.10;99.90
34147;DHT22;20423;49.448;9.056;2022-09-12T09:38:04;22.30;99.90
34147;DHT22;20423;49.448;9.056;2022-09-12T09:40:48;22.10;99.90
34147;DHT22;20423;49.448;9.056;2022-09-12T09:43:19;22.20;99.90
34147;DHT22;20423;49.448;9.056;2022-09-12T09:45:48;22.40;99.90
34147;DHT22;20423;49.448;9.056;2022-09-12T09:50:46;23.40;99.90
34147;DHT22;20423;49.448;9.056;2022-09-12T09:53:27;24.40;99.90
34147;DHT22;20423;49.448;9.056;2022-09-12T09:55:55;24.80;99.90
34147;DHT22;20423;49.448;9.056;2022-09-12T09:58:34;24.30;99.90
34147;DHT22;20423;49.448;9.056;2022-09-12T10:01:04;24.30;99.90
34147;DHT22;20423;49.448;9.056;2022-09-12T10:03:32;24.70;99.90
34147;DHT22;20423;49.448;9.056;2022-09-12T10:06:24;24.90;99.90
34147;DHT22;20423;49.448;9.056;2022-09-12T10:10:02;25.60;99.90
34147;DHT22;20423;49.448;9.056;2022-09-12T10:11:50;25.00;99.90
34147;DHT22;20423;49.448;9.056;2022-09-12T10:14:37;25.40;99.90
34147;DHT22;20423;49.448;9.056;2022-09-12T10:19:47;25.60;99.90
34147;DHT22;20423;49.448;9.056;2022-09-12T10:22:17;25.10;99.90
34147;DHT22;20423;49.448;9.056;2022-09-12T10:24:50;25.30;99.90
34147;DHT22;20423;49.448;9.056;2022-09-12T10:27:27;25.50;99.90
34147;DHT22;20423;49.448;9.056;2022-09-12T10:30:03;26.10;99.90
34147;DHT22;20423;49.448;9.056;2022-09-12T10:32:42;26.00;99.30
34147;DHT22;20423;49.448;9.056;2022-09-12T10:35:22;26.00;99.00
34147;DHT22;20423;49.448;9.056;2022-09-12T10:38:03;25.60;98.90
34147;DHT22;20423;49.448;9.056;2022-09-12T10:40:38;24.90;99.20
34147;DHT22;20423;49.448;9.056;2022-09-12T10:43:29;24.40;99.90
34147;DHT22;20423;49.448;9.056;2022-09-12T10:48:45;24.40;99.90
34147;DHT22;20423;49.448;9.056;2022-09-12T10:53:53;24.60;99.90
34147;DHT22;20423;49.448;9.056;2022-09-12T10:56:35;24.20;99.90
34147;DHT22;20423;49.448;9.056;2022-09-12T11:01:41;24.20;99.90
34147;DHT22;20423;49.448;9.056;2022-09-12T11:04:37;24.80;99.90
34147;DHT22;20423;49.448;9.056;2022-09-12T11:07:29;24.80;99.30
34147;DHT22;20423;49.448;9.056;2022-09-12T11:12:47;25.30;97.90
34147;DHT22;20423;49.448;9.056;2022-09-12T11:15:34;25.30;97.10
34147;DHT22;20423;49.448;9.056;2022-09-12T11:25:39;26.00;98.20
34147;DHT22;20423;49.448;9.056;2022-09-12T11:33:44;26.00;97.60
34147;DHT22;20423;49.448;9.056;2022-09-12T11:36:27;25.60;97.10
34147;DHT22;20423;49.448;9.056;2022-09-12T11:41:30;24.00;99.90
34147;DHT22;20423;49.448;9.056;2022-09-12T11:46:38;23.20;99.90
34147;DHT22;20423;49.448;9.056;2022-09-12T11:49:08;24.00;99.90
34147;DHT22;20423;49.448;9.056;2022-09-12T11:59:46;25.50;95.00
34147;DHT22;20423;49.448;9.056;2022-09-12T12:02:25;25.40;95.20
34147;DHT22;20423;49.448;9.056;2022-09-12T12:07:41;25.60;94.30
34147;DHT22;20423;49.448;9.056;2022-09-12T12:12:53;25.80;95.20
34147;DHT22;20423;49.448;9.056;2022-09-12T12:15:21;25.50;94.60
34147;DHT22;20423;49.448;9.056;2022-09-12T12:18:24;25.70;94.80
34147;DHT22;20423;49.448;9.056;2022-09-12T12:20:50;26.20;95.00
34147;DHT22;20423;49.448;9.056;2022-09-12T12:23:29;25.10;94.00
34147;DHT22;20423;49.448;9.056;2022-09-12T12:25:58;24.30;96.30
34147;DHT22;20423;49.448;9.056;2022-09-12T12:31:15;23.20;98.50
34147;DHT22;20423;49.448;9.056;2022-09-12T12:36:32;22.90;99.40
34147;DHT22;20423;49.448;9.056;2022-09-12T12:38:58;23.00;99.70
34147;DHT22;20423;49.448;9.056;2022-09-12T12:44:45;22.70;99.90
34147;DHT22;20423;49.448;9.056;2022-09-12T12:47:18;22.70;99.90
34147;DHT22;20423;49.448;9.056;2022-09-12T12:49:54;23.40;99.90
34147;DHT22;20423;49.448;9.056;2022-09-12T12:52:21;23.50;97.50
34147;DHT22;20423;49.448;9.056;2022-09-12T12:54:51;23.60;98.30
34147;DHT22;20423;49.448;9.056;2022-09-12T12:57:36;23.60;98.00
34147;DHT22;20423;49.448;9.056;2022-09-12T13:05:26;23.50;97.20
34147;DHT22;20423;49.448;9.056;2022-09-12T13:11:13;24.10;97.30
34147;DHT22;20423;49.448;9.056;2022-09-12T13:13:53;24.20;96.00
34147;DHT22;20423;49.448;9.056;2022-09-12T13:16:36;24.60;94.70
34147;DHT22;20423;49.448;9.056;2022-09-12T13:19:16;24.60;93.40
34147;DHT22;20423;49.448;9.056;2022-09-12T13:22:02;24.80;93.50
34147;DHT22;20423;49.448;9.056;2022-09-12T13:24:28;24.80;92.40
34147;DHT22;20423;49.448;9.056;2022-09-12T13:26:54;24.20;94.20
34147;DHT22;20423;49.448;9.056;2022-09-12T13:29:24;24.20;95.00
34147;DHT22;20423;49.448;9.056;2022-09-12T13:32:00;23.40;94.90
34147;DHT22;20423;49.448;9.056;2022-09-12T13:34:30;23.10;97.00
34147;DHT22;20423;49.448;9.056;2022-09-12T13:39:46;22.50;96.40
34147;DHT22;20423;49.448;9.056;2022-09-12T13:47:46;22.10;97.60
34147;DHT22;20423;49.448;9.056;2022-09-12T13:50:25;22.00;97.60
34147;DHT22;20423;49.448;9.056;2022-09-12T13:52:57;22.00;99.10
34147;DHT22;20423;49.448;9.056;2022-09-12T13:55:33;22.00;98.80
34147;DHT22;20423;49.448;9.056;2022-09-12T13:58:02;22.00;99.90
34147;DHT22;20423;49.448;9.056;2022-09-12T14:00:34;21.90;99.90
34147;DHT22;20423;49.448;9.056;2022-09-12T14:03:24;21.90;99.70
34147;DHT22;20423;49.448;9.056;2022-09-12T14:06:09;21.90;99.90
34147;DHT22;20423;49.448;9.056;2022-09-12T14:08:38;22.00;99.90
34147;DHT22;20423;49.448;9.056;2022-09-12T14:11:21;21.90;98.90
34147;DHT22;20423;49.448;9.056;2022-09-12T14:13:48;22.00;98.90
34147;DHT22;20423;49.448;9.056;2022-09-12T14:16:14;22.10;98.60
34147;DHT22;20423;49.448;9.056;2022-09-12T14:18:41;22.10;98.20
34147;DHT22;20423;49.448;9.056;2022-09-12T14:21:14;22.10;98.60
34147;DHT22;20423;49.448;9.056;2022-09-12T14:23:45;22.00;99.30
34147;DHT22;20423;49.448;9.056;2022-09-12T14:26:14;22.00;97.60
34147;DHT22;20423;49.448;9.056;2022-09-12T14:28:43;22.00;97.80
34147;DHT22;20423;49.448;9.056;2022-09-12T14:33:51;22.20;96.30
34147;DHT22;20423;49.448;9.056;2022-09-12T14:36:24;22.30;95.60
34147;DHT22;20423;49.448;9.056;2022-09-12T14:42:10;22.10;98.50
34147;DHT22;20423;49.448;9.056;2022-09-12T14:44:36;22.20;96.90
34147;DHT22;20423;49.448;9.056;2022-09-12T14:47:18;22.30;97.10
34147;DHT22;20423;49.448;9.056;2022-09-12T14:49:45;22.10;98.10
34147;DHT22;20423;49.448;9.056;2022-09-12T14:52:31;22.10;94.60
34147;DHT22;20423;49.448;9.056;2022-09-12T14:55:02;22.20;94.40
34147;DHT22;20423;49.448;9.056;2022-09-12T14:57:33;22.20;93.80
34147;DHT22;20423;49.448;9.056;2022-09-12T15:02:37;22.00;95.90
34147;DHT22;20423;49.448;9.056;2022-09-12T15:09:59;22.00;95.50
34147;DHT22;20423;49.448;9.056;2022-09-12T15:12:25;21.80;95.90
34147;DHT22;20423;49.448;9.056;2022-09-12T15:14:52;21.80;96.30
34147;DHT22;20423;49.448;9.056;2022-09-12T15:17:20;21.70;95.10
34147;DHT22;20423;49.448;9.056;2022-09-12T15:19:46;21.70;95.70
34147;DHT22;20423;49.448;9.056;2022-09-12T15:22:12;21.80;95.40
34147;DHT22;20423;49.448;9.056;2022-09-12T15:24:38;21.80;96.50
34147;DHT22;20423;49.448;9.056;2022-09-12T15:27:13;21.80;95.60
34147;DHT22;20423;49.448;9.056;2022-09-12T15:29:38;21.70;97.80
34147;DHT22;20423;49.448;9.056;2022-09-12T15:32:05;21.70;97.30
34147;DHT22;20423;49.448;9.056;2022-09-12T15:34:31;21.80;96.30
34147;DHT22;20423;49.448;9.056;2022-09-12T15:36:57;21.80;96.00
34147;DHT22;20423;49.448;9.056;2022-09-12T15:39:23;21.70;93.50
34147;DHT22;20423;49.448;9.056;2022-09-12T15:41:49;21.70;93.80
34147;DHT22;20423;49.448;9.056;2022-09-12T15:44:14;21.70;94.60
34147;DHT22;20423;49.448;9.056;2022-09-12T15:46:40;21.70;95.10
34147;DHT22;20423;49.448;9.056;2022-09-12T15:49:06;21.60;94.80
34147;DHT22;20423;49.448;9.056;2022-09-12T15:51:32;21.50;94.50
34147;DHT22;20423;49.448;9.056;2022-09-12T15:53:59;21.50;94.00
34147;DHT22;20423;49.448;9.056;2022-09-12T15:56:26;21.50;94.00
34147;DHT22;20423;49.448;9.056;2022-09-12T15:58:52;21.60;94.70
34147;DHT22;20423;49.448;9.056;2022-09-12T16:01:30;21.90;93.90
34147;DHT22;20423;49.448;9.056;2022-09-12T16:03:56;22.50;93.30
34147;DHT22;20423;49.448;9.056;2022-09-12T16:06:22;23.30;92.60
34147;DHT22;20423;49.448;9.056;2022-09-12T16:08:51;24.40;91.10
34147;DHT22;20423;49.448;9.056;2022-09-12T16:11:23;25.40;90.10
34147;DHT22;20423;49.448;9.056;2022-09-12T16:13:54;25.90;90.30
34147;DHT22;20423;49.448;9.056;2022-09-12T16:16:52;26.30;89.00
34147;DHT22;20423;49.448;9.056;2022-09-12T16:19:18;26.50;85.60
34147;DHT22;20423;49.448;9.056;2022-09-12T16:21:44;26.80;84.50
34147;DHT22;20423;49.448;9.056;2022-09-12T16:24:10;26.90;86.20
34147;DHT22;20423;49.448;9.056;2022-09-12T16:26:35;26.80;87.40
34147;DHT22;20423;49.448;9.056;2022-09-12T16:29:01;26.50;87.40
34147;DHT22;20423;49.448;9.056;2022-09-12T16:31:27;25.80;88.80
34147;DHT22;20423;49.448;9.056;2022-09-12T16:33:53;25.50;88.10
34147;DHT22;20423;49.448;9.056;2022-09-12T16:36:20;25.50;90.00
34147;DHT22;20423;49.448;9.056;2022-09-12T16:38:48;25.40;90.20
34147;DHT22;20423;49.448;9.056;2022-09-12T16:41:15;25.10;91.00
34147;DHT22;20423;49.448;9.056;2022-09-12T16:43:42;24.30;91.90
34147;DHT22;20423;49.448;9.056;2022-09-12T16:46:10;23.50;92.70
34147;DHT22;20423;49.448;9.056;2022-09-12T16:48:36;22.80;94.60
34147;DHT22;20423;49.448;9.056;2022-09-12T16:51:06;22.20;95.80
34147;DHT22;20423;49.448;9.056;2022-09-12T16:53:36;21.60;97.30
34147;DHT22;20423;49.448;9.056;2022-09-12T16:56:03;21.20;98.80
34147;DHT22;20423;49.448;9.056;2022-09-12T16:58:36;20.80;99.40
34147;DHT22;20423;49.448;9.056;2022-09-12T17:01:15;20.50;99.90
34147;DHT22;20423;49.448;9.056;2022-09-12T17:06:44;19.90;99.90
34147;DHT22;20423;49.448;9.056;2022-09-12T17:09:09;19.60;99.90
34147;DHT22;20423;49.448;9.056;2022-09-12T17:11:42;19.30;99.90
34147;DHT22;20423;49.448;9.056;2022-09-12T17:14:07;19.10;99.90
34147;DHT22;20423;49.448;9.056;2022-09-12T17:17:02;19.00;99.90
34147;DHT22;20423;49.448;9.056;2022-09-12T17:19:28;18.70;99.90
34147;DHT22;20423;49.448;9.056;2022-09-12T17:21:57;18.60;99.90
34147;DHT22;20423;49.448;9.056;2022-09-12T17:24:23;18.50;99.90
34147;DHT22;20423;49.448;9.056;2022-09-12T17:26:50;18.30;99.90
34147;DHT22;20423;49.448;9.056;2022-09-12T17:29:16;18.20;99.90
34147;DHT22;20423;49.448;9.056;2022-09-12T17:31:43;18.00;99.90
34147;DHT22;20423;49.448;9.056;2022-09-12T17:34:09;17.80;99.90
34147;DHT22;20423;49.448;9.056;2022-09-12T17:36:39;17.50;99.90
34147;DHT22;20423;49.448;9.056;2022-09-12T17:39:04;17.30;99.90
34147;DHT22;20423;49.448;9.056;2022-09-12T17:41:31;17.10;99.90
34147;DHT22;20423;49.448;9.056;2022-09-12T17:43:58;16.90;99.90
34147;DHT22;20423;49.448;9.056;2022-09-12T17:46:33;16.80;99.90
34147;DHT22;20423;49.448;9.056;2022-09-12T17:48:59;16.60;99.90
34147;DHT22;20423;49.448;9.056;2022-09-12T17:51:27;16.50;99.90
34147;DHT22;20423;49.448;9.056;2022-09-12T17:54:00;16.40;99.90
34147;DHT22;20423;49.448;9.056;2022-09-12T17:56:28;16.30;99.90
34147;DHT22;20423;49.448;9.056;2022-09-12T17:58:56;16.10;99.90
34147;DHT22;20423;49.448;9.056;2022-09-12T18:01:22;15.90;99.90
34147;DHT22;20423;49.448;9.056;2022-09-12T18:04:07;15.70;99.90
34147;DHT22;20423;49.448;9.056;2022-09-12T18:06:32;15.50;99.90
34147;DHT22;20423;49.448;9.056;2022-09-12T18:08:59;15.30;99.90
34147;DHT22;20423;49.448;9.056;2022-09-12T18:11:26;15.30;99.90
34147;DHT22;20423;49.448;9.056;2022-09-12T18:13:51;15.10;99.90
34147;DHT22;20423;49.448;9.056;2022-09-12T18:16:17;15.00;99.90
34147;DHT22;20423;49.448;9.056;2022-09-12T18:18:43;15.00;99.90
34147;DHT22;20423;49.448;9.056;2022-09-12T18:21:10;15.00;99.90
34147;DHT22;20423;49.448;9.056;2022-09-12T18:23:36;14.80;99.90
34147;DHT22;20423;49.448;9.056;2022-09-12T18:26:04;14.70;99.90
34147;DHT22;20423;49.448;9.056;2022-09-12T18:28:32;14.60;99.90
34147;DHT22;20423;49.448;9.056;2022-09-12T18:30:58;14.60;99.90
34147;DHT22;20423;49.448;9.056;2022-09-12T18:33:24;14.50;99.90
34147;DHT22;20423;49.448;9.056;2022-09-12T18:35:49;14.40;99.90
34147;DHT22;20423;49.448;9.056;2022-09-12T18:38:15;14.30;99.90